San Bernardino, Switzerland
Current Conditions -  °F | °C
As of 5:50 AM on Wednesday 22 Oct 2014 (Local Time) from LSZL Reporting Station
Scattered Clouds Scattered Clouds  
Wind Chill: 50°   Ceiling: Unl
Heat Index: 50°   Visibility: 6mi
Dew Point: 37°   Wind: 3mph
Humidity: 62%   Direction: NA
Pressure: 29.85"   Gusts: NA
Location:  46.47°N, 9.18°E
Report Text: LSZL 220350Z AUTO VRB03KT 9999NDV FEW077 SCT092 10/03 Q1011 RMK BLU
Loading
Personal Weather Stations






























Interactive Weather Map
Tropical Storm Tracking
New forecast layout! Learn more

10-Day Weather Forecast

Advertisements
Track Severe Weather on mobile